sensor_id;sensor_type;location;lat;lon;timestamp;P1;durP1;ratioP1;P2;durP2;ratioP2
26269;SDS011;15937;50.612;6.656;2024-02-28T00:03:13;82.65;;;31.20;;
26269;SDS011;15937;50.612;6.656;2024-02-28T00:07:16;73.47;;;27.33;;
26269;SDS011;15937;50.612;6.656;2024-02-28T00:11:20;88.93;;;33.13;;
26269;SDS011;15937;50.612;6.656;2024-02-28T00:15:23;79.93;;;30.85;;
26269;SDS011;15937;50.612;6.656;2024-02-28T00:19:25;81.25;;;30.30;;
26269;SDS011;15937;50.612;6.656;2024-02-28T00:23:28;76.70;;;30.77;;
26269;SDS011;15937;50.612;6.656;2024-02-28T00:27:30;72.15;;;29.17;;
26269;SDS011;15937;50.612;6.656;2024-02-28T00:31:32;77.85;;;30.15;;
26269;SDS011;15937;50.612;6.656;2024-02-28T00:35:34;77.30;;;30.65;;
26269;SDS011;15937;50.612;6.656;2024-02-28T00:39:37;80.30;;;28.98;;
26269;SDS011;15937;50.612;6.656;2024-02-28T00:43:39;75.63;;;27.93;;
26269;SDS011;15937;50.612;6.656;2024-02-28T00:47:42;72.28;;;27.02;;
26269;SDS011;15937;50.612;6.656;2024-02-28T00:51:45;68.40;;;26.60;;
26269;SDS011;15937;50.612;6.656;2024-02-28T00:55:48;75.15;;;29.05;;
26269;SDS011;15937;50.612;6.656;2024-02-28T00:59:50;68.97;;;26.77;;
26269;SDS011;15937;50.612;6.656;2024-02-28T01:03:52;75.47;;;27.60;;
26269;SDS011;15937;50.612;6.656;2024-02-28T01:07:54;62.77;;;26.07;;
26269;SDS011;15937;50.612;6.656;2024-02-28T01:11:56;75.10;;;27.08;;
26269;SDS011;15937;50.612;6.656;2024-02-28T01:16:00;68.07;;;25.77;;
26269;SDS011;15937;50.612;6.656;2024-02-28T01:20:02;68.47;;;26.07;;
26269;SDS011;15937;50.612;6.656;2024-02-28T01:24:09;71.30;;;25.10;;
26269;SDS011;15937;50.612;6.656;2024-02-28T01:28:12;67.05;;;24.15;;
26269;SDS011;15937;50.612;6.656;2024-02-28T01:32:14;68.63;;;24.30;;
26269;SDS011;15937;50.612;6.656;2024-02-28T01:36:16;72.30;;;26.27;;
26269;SDS011;15937;50.612;6.656;2024-02-28T01:40:17;67.22;;;24.48;;
26269;SDS011;15937;50.612;6.656;2024-02-28T01:44:20;72.33;;;23.13;;
26269;SDS011;15937;50.612;6.656;2024-02-28T01:52:25;72.25;;;22.45;;
26269;SDS011;15937;50.612;6.656;2024-02-28T01:56:27;64.47;;;22.23;;
26269;SDS011;15937;50.612;6.656;2024-02-28T02:00:29;67.72;;;22.92;;
26269;SDS011;15937;50.612;6.656;2024-02-28T02:04:34;58.30;;;20.60;;
26269;SDS011;15937;50.612;6.656;2024-02-28T02:08:36;56.53;;;21.40;;
26269;SDS011;15937;50.612;6.656;2024-02-28T02:12:39;61.30;;;21.20;;
26269;SDS011;15937;50.612;6.656;2024-02-28T02:16:41;48.53;;;19.65;;
26269;SDS011;15937;50.612;6.656;2024-02-28T02:20:44;54.97;;;19.33;;
26269;SDS011;15937;50.612;6.656;2024-02-28T02:24:51;49.40;;;18.98;;
26269;SDS011;15937;50.612;6.656;2024-02-28T02:28:54;50.78;;;19.02;;
26269;SDS011;15937;50.612;6.656;2024-02-28T02:32:57;48.00;;;18.63;;
26269;SDS011;15937;50.612;6.656;2024-02-28T02:36:59;55.20;;;20.70;;
26269;SDS011;15937;50.612;6.656;2024-02-28T02:41:01;44.90;;;17.02;;
26269;SDS011;15937;50.612;6.656;2024-02-28T02:45:03;43.50;;;17.30;;
26269;SDS011;15937;50.612;6.656;2024-02-28T02:49:08;41.40;;;16.55;;
26269;SDS011;15937;50.612;6.656;2024-02-28T02:53:10;50.47;;;17.30;;
26269;SDS011;15937;50.612;6.656;2024-02-28T02:57:12;45.08;;;17.17;;
26269;SDS011;15937;50.612;6.656;2024-02-28T03:01:14;56.53;;;16.63;;
26269;SDS011;15937;50.612;6.656;2024-02-28T03:05:17;46.45;;;17.15;;
26269;SDS011;15937;50.612;6.656;2024-02-28T03:09:21;42.63;;;16.27;;
26269;SDS011;15937;50.612;6.656;2024-02-28T03:13:23;44.00;;;15.73;;
26269;SDS011;15937;50.612;6.656;2024-02-28T03:17:26;45.65;;;16.10;;
26269;SDS011;15937;50.612;6.656;2024-02-28T03:21:28;39.10;;;16.17;;
26269;SDS011;15937;50.612;6.656;2024-02-28T03:25:31;36.28;;;15.52;;
26269;SDS011;15937;50.612;6.656;2024-02-28T03:29:33;36.55;;;15.02;;
26269;SDS011;15937;50.612;6.656;2024-02-28T03:33:35;39.00;;;15.10;;
26269;SDS011;15937;50.612;6.656;2024-02-28T03:37:37;35.00;;;15.43;;
26269;SDS011;15937;50.612;6.656;2024-02-28T03:41:39;41.53;;;15.23;;
26269;SDS011;15937;50.612;6.656;2024-02-28T03:45:42;31.50;;;13.27;;
26269;SDS011;15937;50.612;6.656;2024-02-28T03:49:44;33.33;;;14.68;;
26269;SDS011;15937;50.612;6.656;2024-02-28T03:53:46;35.75;;;15.20;;
26269;SDS011;15937;50.612;6.656;2024-02-28T03:57:48;35.38;;;14.70;;
26269;SDS011;15937;50.612;6.656;2024-02-28T04:01:53;36.90;;;14.88;;
26269;SDS011;15937;50.612;6.656;2024-02-28T04:05:55;35.13;;;14.13;;
26269;SDS011;15937;50.612;6.656;2024-02-28T04:09:57;41.65;;;14.80;;
26269;SDS011;15937;50.612;6.656;2024-02-28T04:14:00;37.17;;;15.43;;
26269;SDS011;15937;50.612;6.656;2024-02-28T04:18:02;36.97;;;14.68;;
26269;SDS011;15937;50.612;6.656;2024-02-28T04:22:05;34.25;;;13.98;;
26269;SDS011;15937;50.612;6.656;2024-02-28T04:26:07;39.53;;;15.32;;
26269;SDS011;15937;50.612;6.656;2024-02-28T04:30:12;35.80;;;14.27;;
26269;SDS011;15937;50.612;6.656;2024-02-28T04:34:14;36.20;;;13.88;;
26269;SDS011;15937;50.612;6.656;2024-02-28T04:38:16;39.70;;;14.67;;
26269;SDS011;15937;50.612;6.656;2024-02-28T04:42:20;33.05;;;14.25;;
26269;SDS011;15937;50.612;6.656;2024-02-28T04:46:22;31.17;;;13.63;;
26269;SDS011;15937;50.612;6.656;2024-02-28T04:50:24;32.20;;;13.30;;
26269;SDS011;15937;50.612;6.656;2024-02-28T04:54:25;37.28;;;14.18;;
26269;SDS011;15937;50.612;6.656;2024-02-28T04:58:28;34.87;;;15.13;;
26269;SDS011;15937;50.612;6.656;2024-02-28T05:02:30;31.53;;;14.43;;
26269;SDS011;15937;50.612;6.656;2024-02-28T05:06:32;26.35;;;10.25;;
26269;SDS011;15937;50.612;6.656;2024-02-28T05:10:37;32.70;;;13.50;;
26269;SDS011;15937;50.612;6.656;2024-02-28T05:18:44;28.70;;;12.75;;
26269;SDS011;15937;50.612;6.656;2024-02-28T05:22:47;35.20;;;14.88;;
26269;SDS011;15937;50.612;6.656;2024-02-28T05:26:49;35.03;;;14.33;;
26269;SDS011;15937;50.612;6.656;2024-02-28T05:30:51;34.38;;;15.38;;
26269;SDS011;15937;50.612;6.656;2024-02-28T05:34:53;41.13;;;19.37;;
26269;SDS011;15937;50.612;6.656;2024-02-28T05:38:56;38.10;;;16.08;;
26269;SDS011;15937;50.612;6.656;2024-02-28T05:43:00;41.47;;;19.05;;
26269;SDS011;15937;50.612;6.656;2024-02-28T05:47:03;41.33;;;18.70;;
26269;SDS011;15937;50.612;6.656;2024-02-28T05:51:06;39.80;;;15.95;;
26269;SDS011;15937;50.612;6.656;2024-02-28T05:55:08;37.35;;;15.38;;
26269;SDS011;15937;50.612;6.656;2024-02-28T05:59:10;32.85;;;14.05;;
26269;SDS011;15937;50.612;6.656;2024-02-28T06:03:13;33.07;;;14.77;;
26269;SDS011;15937;50.612;6.656;2024-02-28T06:07:15;32.85;;;14.02;;
26269;SDS011;15937;50.612;6.656;2024-02-28T06:11:18;37.47;;;13.90;;
26269;SDS011;15937;50.612;6.656;2024-02-28T06:15:21;25.50;;;12.95;;
26269;SDS011;15937;50.612;6.656;2024-02-28T06:19:23;30.40;;;12.87;;
26269;SDS011;15937;50.612;6.656;2024-02-28T06:23:26;27.90;;;13.20;;
26269;SDS011;15937;50.612;6.656;2024-02-28T06:27:30;35.65;;;14.18;;
26269;SDS011;15937;50.612;6.656;2024-02-28T06:31:32;30.77;;;14.03;;
26269;SDS011;15937;50.612;6.656;2024-02-28T06:35:34;30.35;;;13.80;;
26269;SDS011;15937;50.612;6.656;2024-02-28T06:39:36;34.47;;;13.57;;
26269;SDS011;15937;50.612;6.656;2024-02-28T06:43:39;32.17;;;14.70;;
26269;SDS011;15937;50.612;6.656;2024-02-28T06:47:42;44.35;;;17.73;;
26269;SDS011;15937;50.612;6.656;2024-02-28T06:51:46;61.65;;;23.02;;
26269;SDS011;15937;50.612;6.656;2024-02-28T06:55:48;78.87;;;25.90;;
26269;SDS011;15937;50.612;6.656;2024-02-28T06:59:51;78.30;;;28.20;;
26269;SDS011;15937;50.612;6.656;2024-02-28T07:03:53;38.37;;;16.67;;
26269;SDS011;15937;50.612;6.656;2024-02-28T07:07:56;41.08;;;17.08;;
26269;SDS011;15937;50.612;6.656;2024-02-28T07:11:58;32.80;;;13.87;;
26269;SDS011;15937;50.612;6.656;2024-02-28T07:16:00;33.78;;;13.63;;
26269;SDS011;15937;50.612;6.656;2024-02-28T07:20:02;31.25;;;12.85;;
26269;SDS011;15937;50.612;6.656;2024-02-28T07:24:05;32.63;;;14.17;;
26269;SDS011;15937;50.612;6.656;2024-02-28T07:28:07;37.80;;;14.80;;
26269;SDS011;15937;50.612;6.656;2024-02-28T07:32:09;48.03;;;19.73;;
26269;SDS011;15937;50.612;6.656;2024-02-28T07:36:12;38.78;;;16.73;;
26269;SDS011;15937;50.612;6.656;2024-02-28T07:40:14;32.03;;;14.13;;
26269;SDS011;15937;50.612;6.656;2024-02-28T07:44:16;28.20;;;12.60;;
26269;SDS011;15937;50.612;6.656;2024-02-28T07:48:18;27.80;;;13.93;;
26269;SDS011;15937;50.612;6.656;2024-02-28T07:52:24;33.42;;;13.70;;
26269;SDS011;15937;50.612;6.656;2024-02-28T07:56:26;32.85;;;13.23;;
26269;SDS011;15937;50.612;6.656;2024-02-28T08:00:30;35.75;;;14.95;;
26269;SDS011;15937;50.612;6.656;2024-02-28T08:04:37;30.23;;;13.95;;
26269;SDS011;15937;50.612;6.656;2024-02-28T08:08:39;32.33;;;14.05;;
26269;SDS011;15937;50.612;6.656;2024-02-28T08:12:41;27.00;;;12.77;;
26269;SDS011;15937;50.612;6.656;2024-02-28T08:16:43;28.42;;;12.68;;
26269;SDS011;15937;50.612;6.656;2024-02-28T08:20:45;32.95;;;12.38;;
26269;SDS011;15937;50.612;6.656;2024-02-28T08:24:47;30.08;;;13.23;;
26269;SDS011;15937;50.612;6.656;2024-02-28T08:28:52;39.90;;;14.32;;
26269;SDS011;15937;50.612;6.656;2024-02-28T08:32:54;39.95;;;13.90;;
26269;SDS011;15937;50.612;6.656;2024-02-28T08:36:56;34.87;;;14.47;;
26269;SDS011;15937;50.612;6.656;2024-02-28T08:40:58;35.83;;;15.53;;
26269;SDS011;15937;50.612;6.656;2024-02-28T08:45:00;35.55;;;16.23;;
26269;SDS011;15937;50.612;6.656;2024-02-28T08:49:05;44.08;;;16.02;;
26269;SDS011;15937;50.612;6.656;2024-02-28T08:53:07;36.38;;;17.42;;
26269;SDS011;15937;50.612;6.656;2024-02-28T08:57:09;36.63;;;15.23;;
26269;SDS011;15937;50.612;6.656;2024-02-28T09:01:14;34.75;;;14.63;;
26269;SDS011;15937;50.612;6.656;2024-02-28T09:05:17;34.83;;;14.32;;
26269;SDS011;15937;50.612;6.656;2024-02-28T09:09:19;38.17;;;15.63;;
26269;SDS011;15937;50.612;6.656;2024-02-28T09:13:21;27.80;;;12.60;;
26269;SDS011;15937;50.612;6.656;2024-02-28T09:21:27;47.60;;;17.92;;
26269;SDS011;15937;50.612;6.656;2024-02-28T09:25:29;42.70;;;17.57;;
26269;SDS011;15937;50.612;6.656;2024-02-28T09:29:32;35.45;;;16.63;;
26269;SDS011;15937;50.612;6.656;2024-02-28T09:33:34;52.28;;;18.98;;
26269;SDS011;15937;50.612;6.656;2024-02-28T09:37:37;40.93;;;17.53;;
26269;SDS011;15937;50.612;6.656;2024-02-28T09:41:39;42.13;;;17.13;;
26269;SDS011;15937;50.612;6.656;2024-02-28T09:45:43;39.70;;;16.00;;
26269;SDS011;15937;50.612;6.656;2024-02-28T09:49:49;37.60;;;16.48;;
26269;SDS011;15937;50.612;6.656;2024-02-28T09:53:53;34.25;;;13.95;;
26269;SDS011;15937;50.612;6.656;2024-02-28T09:57:55;29.33;;;12.48;;
26269;SDS011;15937;50.612;6.656;2024-02-28T10:01:59;26.83;;;11.85;;
26269;SDS011;15937;50.612;6.656;2024-02-28T10:06:02;29.73;;;13.65;;
26269;SDS011;15937;50.612;6.656;2024-02-28T10:10:06;29.70;;;12.63;;
26269;SDS011;15937;50.612;6.656;2024-02-28T10:14:12;28.73;;;11.60;;
26269;SDS011;15937;50.612;6.656;2024-02-28T10:18:20;30.70;;;12.77;;
26269;SDS011;15937;50.612;6.656;2024-02-28T10:22:23;33.00;;;14.50;;
26269;SDS011;15937;50.612;6.656;2024-02-28T10:26:26;26.63;;;12.93;;
26269;SDS011;15937;50.612;6.656;2024-02-28T10:30:28;31.33;;;13.77;;
26269;SDS011;15937;50.612;6.656;2024-02-28T10:34:30;29.73;;;13.18;;
26269;SDS011;15937;50.612;6.656;2024-02-28T10:38:34;29.70;;;13.45;;
26269;SDS011;15937;50.612;6.656;2024-02-28T10:42:37;27.02;;;13.27;;
26269;SDS011;15937;50.612;6.656;2024-02-28T10:46:42;26.30;;;12.70;;
26269;SDS011;15937;50.612;6.656;2024-02-28T10:50:46;29.27;;;12.07;;
26269;SDS011;15937;50.612;6.656;2024-02-28T10:54:51;37.72;;;12.68;;
26269;SDS011;15937;50.612;6.656;2024-02-28T10:58:59;26.75;;;13.07;;
26269;SDS011;15937;50.612;6.656;2024-02-28T11:03:04;23.75;;;10.55;;
26269;SDS011;15937;50.612;6.656;2024-02-28T11:07:07;15.82;;;7.55;;
26269;SDS011;15937;50.612;6.656;2024-02-28T11:11:10;15.38;;;7.75;;
26269;SDS011;15937;50.612;6.656;2024-02-28T11:15:16;7.95;;;4.50;;
26269;SDS011;15937;50.612;6.656;2024-02-28T11:23:24;14.48;;;6.38;;
26269;SDS011;15937;50.612;6.656;2024-02-28T11:27:27;15.93;;;7.38;;
26269;SDS011;15937;50.612;6.656;2024-02-28T11:31:30;18.23;;;4.70;;
26269;SDS011;15937;50.612;6.656;2024-02-28T11:35:32;34.72;;;13.95;;
26269;SDS011;15937;50.612;6.656;2024-02-28T11:39:35;31.60;;;14.75;;
26269;SDS011;15937;50.612;6.656;2024-02-28T11:43:38;30.98;;;13.65;;
26269;SDS011;15937;50.612;6.656;2024-02-28T11:47:52;32.08;;;13.50;;
26269;SDS011;15937;50.612;6.656;2024-02-28T11:51:54;29.63;;;13.70;;
26269;SDS011;15937;50.612;6.656;2024-02-28T11:55:56;28.05;;;12.55;;
26269;SDS011;15937;50.612;6.656;2024-02-28T12:00:02;33.53;;;15.35;;
26269;SDS011;15937;50.612;6.656;2024-02-28T12:04:16;36.72;;;15.05;;
26269;SDS011;15937;50.612;6.656;2024-02-28T12:08:19;37.65;;;16.02;;
26269;SDS011;15937;50.612;6.656;2024-02-28T12:12:21;38.13;;;16.00;;
26269;SDS011;15937;50.612;6.656;2024-02-28T12:16:26;33.13;;;14.95;;
26269;SDS011;15937;50.612;6.656;2024-02-28T12:20:29;29.55;;;13.13;;
26269;SDS011;15937;50.612;6.656;2024-02-28T12:24:31;38.97;;;15.47;;
26269;SDS011;15937;50.612;6.656;2024-02-28T12:28:35;36.08;;;15.25;;
26269;SDS011;15937;50.612;6.656;2024-02-28T12:32:37;32.95;;;13.30;;
26269;SDS011;15937;50.612;6.656;2024-02-28T12:36:39;29.27;;;13.00;;
26269;SDS011;15937;50.612;6.656;2024-02-28T12:40:44;29.27;;;12.70;;
26269;SDS011;15937;50.612;6.656;2024-02-28T12:44:46;28.38;;;12.48;;
26269;SDS011;15937;50.612;6.656;2024-02-28T12:48:48;41.63;;;13.33;;
26269;SDS011;15937;50.612;6.656;2024-02-28T12:52:50;25.30;;;11.63;;
26269;SDS011;15937;50.612;6.656;2024-02-28T12:56:55;25.35;;;11.65;;
26269;SDS011;15937;50.612;6.656;2024-02-28T13:00:57;41.15;;;15.05;;
26269;SDS011;15937;50.612;6.656;2024-02-28T13:04:59;27.17;;;13.00;;
26269;SDS011;15937;50.612;6.656;2024-02-28T13:09:01;31.85;;;13.98;;
26269;SDS011;15937;50.612;6.656;2024-02-28T13:13:04;27.67;;;12.52;;
26269;SDS011;15937;50.612;6.656;2024-02-28T13:17:07;23.83;;;11.38;;
26269;SDS011;15937;50.612;6.656;2024-02-28T13:21:10;24.92;;;11.95;;
26269;SDS011;15937;50.612;6.656;2024-02-28T13:25:13;30.40;;;13.80;;
26269;SDS011;15937;50.612;6.656;2024-02-28T13:29:17;26.77;;;12.93;;
26269;SDS011;15937;50.612;6.656;2024-02-28T13:33:19;27.77;;;11.25;;
26269;SDS011;15937;50.612;6.656;2024-02-28T13:37:21;25.60;;;11.60;;
26269;SDS011;15937;50.612;6.656;2024-02-28T13:41:24;28.77;;;13.50;;
26269;SDS011;15937;50.612;6.656;2024-02-28T13:45:29;27.25;;;12.38;;
26269;SDS011;15937;50.612;6.656;2024-02-28T13:49:33;27.85;;;11.82;;
26269;SDS011;15937;50.612;6.656;2024-02-28T13:53:35;35.00;;;14.27;;
26269;SDS011;15937;50.612;6.656;2024-02-28T13:57:37;35.90;;;13.80;;
26269;SDS011;15937;50.612;6.656;2024-02-28T14:01:39;26.02;;;12.30;;
26269;SDS011;15937;50.612;6.656;2024-02-28T14:05:41;24.63;;;11.60;;
26269;SDS011;15937;50.612;6.656;2024-02-28T14:09:43;25.40;;;12.70;;
26269;SDS011;15937;50.612;6.656;2024-02-28T14:13:48;29.60;;;12.07;;
26269;SDS011;15937;50.612;6.656;2024-02-28T14:17:52;24.00;;;10.93;;
26269;SDS011;15937;50.612;6.656;2024-02-28T14:21:54;27.93;;;11.63;;
26269;SDS011;15937;50.612;6.656;2024-02-28T14:25:56;25.02;;;12.18;;
26269;SDS011;15937;50.612;6.656;2024-02-28T14:29:58;28.53;;;11.97;;
26269;SDS011;15937;50.612;6.656;2024-02-28T14:34:00;29.20;;;12.30;;
26269;SDS011;15937;50.612;6.656;2024-02-28T14:38:03;32.80;;;12.15;;
26269;SDS011;15937;50.612;6.656;2024-02-28T14:42:05;27.10;;;11.73;;
26269;SDS011;15937;50.612;6.656;2024-02-28T14:46:10;30.42;;;13.10;;
26269;SDS011;15937;50.612;6.656;2024-02-28T14:50:12;23.05;;;11.18;;
26269;SDS011;15937;50.612;6.656;2024-02-28T14:54:15;31.00;;;13.10;;
26269;SDS011;15937;50.612;6.656;2024-02-28T14:58:17;23.20;;;11.80;;
26269;SDS011;15937;50.612;6.656;2024-02-28T15:06:23;28.35;;;12.77;;
26269;SDS011;15937;50.612;6.656;2024-02-28T15:10:34;26.50;;;11.70;;
26269;SDS011;15937;50.612;6.656;2024-02-28T15:14:36;30.67;;;12.70;;
26269;SDS011;15937;50.612;6.656;2024-02-28T15:18:38;28.67;;;12.30;;
26269;SDS011;15937;50.612;6.656;2024-02-28T15:22:42;26.58;;;12.05;;
26269;SDS011;15937;50.612;6.656;2024-02-28T15:26:47;30.15;;;12.95;;
26269;SDS011;15937;50.612;6.656;2024-02-28T15:30:49;28.85;;;12.65;;
26269;SDS011;15937;50.612;6.656;2024-02-28T15:34:52;27.33;;;12.80;;
26269;SDS011;15937;50.612;6.656;2024-02-28T15:38:54;28.67;;;11.80;;
26269;SDS011;15937;50.612;6.656;2024-02-28T15:42:56;27.13;;;12.37;;
26269;SDS011;15937;50.612;6.656;2024-02-28T15:47:00;34.85;;;12.82;;
26269;SDS011;15937;50.612;6.656;2024-02-28T15:51:02;34.20;;;13.48;;
26269;SDS011;15937;50.612;6.656;2024-02-28T15:55:05;28.48;;;11.85;;
26269;SDS011;15937;50.612;6.656;2024-02-28T15:59:08;30.60;;;12.32;;
26269;SDS011;15937;50.612;6.656;2024-02-28T16:03:12;30.00;;;13.45;;
26269;SDS011;15937;50.612;6.656;2024-02-28T16:07:15;32.50;;;15.17;;
26269;SDS011;15937;50.612;6.656;2024-02-28T16:11:17;42.88;;;20.10;;
26269;SDS011;15937;50.612;6.656;2024-02-28T16:15:21;42.58;;;16.35;;
26269;SDS011;15937;50.612;6.656;2024-02-28T16:19:23;38.80;;;15.07;;
26269;SDS011;15937;50.612;6.656;2024-02-28T16:23:28;31.42;;;14.55;;
26269;SDS011;15937;50.612;6.656;2024-02-28T16:27:30;35.47;;;14.20;;
26269;SDS011;15937;50.612;6.656;2024-02-28T16:31:32;33.07;;;14.30;;
26269;SDS011;15937;50.612;6.656;2024-02-28T16:35:34;29.30;;;12.75;;
26269;SDS011;15937;50.612;6.656;2024-02-28T16:39:37;28.90;;;12.40;;
26269;SDS011;15937;50.612;6.656;2024-02-28T16:43:39;31.10;;;12.13;;
26269;SDS011;15937;50.612;6.656;2024-02-28T16:47:41;37.38;;;18.70;;
26269;SDS011;15937;50.612;6.656;2024-02-28T16:51:45;40.70;;;17.88;;
26269;SDS011;15937;50.612;6.656;2024-02-28T16:55:47;32.92;;;14.90;;
26269;SDS011;15937;50.612;6.656;2024-02-28T16:59:49;35.33;;;17.43;;
26269;SDS011;15937;50.612;6.656;2024-02-28T17:03:51;41.80;;;14.85;;
26269;SDS011;15937;50.612;6.656;2024-02-28T17:07:53;29.57;;;12.73;;
26269;SDS011;15937;50.612;6.656;2024-02-28T17:11:55;23.58;;;11.57;;
26269;SDS011;15937;50.612;6.656;2024-02-28T17:15:59;39.22;;;16.75;;
26269;SDS011;15937;50.612;6.656;2024-02-28T17:20:05;37.00;;;14.73;;
26269;SDS011;15937;50.612;6.656;2024-02-28T17:24:08;34.13;;;15.98;;
26269;SDS011;15937;50.612;6.656;2024-02-28T17:28:10;25.90;;;11.52;;
26269;SDS011;15937;50.612;6.656;2024-02-28T17:32:12;28.55;;;12.77;;
26269;SDS011;15937;50.612;6.656;2024-02-28T17:36:15;25.83;;;11.80;;
26269;SDS011;15937;50.612;6.656;2024-02-28T17:40:17;31.37;;;13.03;;
26269;SDS011;15937;50.612;6.656;2024-02-28T17:44:19;26.02;;;11.82;;
26269;SDS011;15937;50.612;6.656;2024-02-28T17:48:21;29.83;;;12.20;;
26269;SDS011;15937;50.612;6.656;2024-02-28T17:52:23;24.77;;;12.17;;
26269;SDS011;15937;50.612;6.656;2024-02-28T17:56:25;28.38;;;13.20;;
26269;SDS011;15937;50.612;6.656;2024-02-28T18:00:28;34.45;;;14.73;;
26269;SDS011;15937;50.612;6.656;2024-02-28T18:04:30;22.37;;;9.83;;
26269;SDS011;15937;50.612;6.656;2024-02-28T18:08:32;23.77;;;8.30;;
26269;SDS011;15937;50.612;6.656;2024-02-28T18:12:34;12.27;;;6.70;;
26269;SDS011;15937;50.612;6.656;2024-02-28T18:16:36;31.13;;;12.90;;
26269;SDS011;15937;50.612;6.656;2024-02-28T18:20:40;12.43;;;6.45;;
26269;SDS011;15937;50.612;6.656;2024-02-28T18:24:42;12.48;;;7.03;;
26269;SDS011;15937;50.612;6.656;2024-02-28T18:28:44;24.83;;;8.17;;
26269;SDS011;15937;50.612;6.656;2024-02-28T18:32:46;15.23;;;7.22;;
26269;SDS011;15937;50.612;6.656;2024-02-28T18:36:50;10.55;;;5.53;;
26269;SDS011;15937;50.612;6.656;2024-02-28T18:40:53;9.43;;;4.97;;
26269;SDS011;15937;50.612;6.656;2024-02-28T18:44:55;10.55;;;4.80;;
26269;SDS011;15937;50.612;6.656;2024-02-28T18:48:58;6.23;;;2.90;;
26269;SDS011;15937;50.612;6.656;2024-02-28T18:53:00;5.45;;;2.72;;
26269;SDS011;15937;50.612;6.656;2024-02-28T18:57:02;3.88;;;2.00;;
26269;SDS011;15937;50.612;6.656;2024-02-28T19:01:04;5.20;;;2.85;;
26269;SDS011;15937;50.612;6.656;2024-02-28T19:05:06;3.57;;;2.60;;
26269;SDS011;15937;50.612;6.656;2024-02-28T19:09:09;5.13;;;2.72;;
26269;SDS011;15937;50.612;6.656;2024-02-28T19:13:11;7.03;;;3.60;;
26269;SDS011;15937;50.612;6.656;2024-02-28T19:17:27;9.02;;;4.10;;
26269;SDS011;15937;50.612;6.656;2024-02-28T19:21:30;7.65;;;4.50;;
26269;SDS011;15937;50.612;6.656;2024-02-28T19:25:32;9.30;;;5.63;;
26269;SDS011;15937;50.612;6.656;2024-02-28T19:29:35;11.32;;;5.05;;
26269;SDS011;15937;50.612;6.656;2024-02-28T19:33:37;11.83;;;5.07;;
26269;SDS011;15937;50.612;6.656;2024-02-28T19:37:40;10.38;;;6.00;;
26269;SDS011;15937;50.612;6.656;2024-02-28T19:41:44;11.77;;;6.30;;
26269;SDS011;15937;50.612;6.656;2024-02-28T19:45:46;13.35;;;6.22;;
26269;SDS011;15937;50.612;6.656;2024-02-28T19:49:48;12.07;;;6.20;;
26269;SDS011;15937;50.612;6.656;2024-02-28T19:53:50;15.63;;;6.82;;
26269;SDS011;15937;50.612;6.656;2024-02-28T19:57:52;17.70;;;7.05;;
26269;SDS011;15937;50.612;6.656;2024-02-28T20:01:54;15.48;;;7.07;;
26269;SDS011;15937;50.612;6.656;2024-02-28T20:05:56;14.73;;;7.17;;
26269;SDS011;15937;50.612;6.656;2024-02-28T20:09:58;15.85;;;6.93;;
26269;SDS011;15937;50.612;6.656;2024-02-28T20:14:01;13.73;;;7.17;;
26269;SDS011;15937;50.612;6.656;2024-02-28T20:18:03;14.83;;;6.90;;
26269;SDS011;15937;50.612;6.656;2024-02-28T20:22:06;15.98;;;7.03;;
26269;SDS011;15937;50.612;6.656;2024-02-28T20:26:08;17.00;;;7.33;;
26269;SDS011;15937;50.612;6.656;2024-02-28T20:30:10;15.07;;;6.80;;
26269;SDS011;15937;50.612;6.656;2024-02-28T20:34:14;16.33;;;7.63;;
26269;SDS011;15937;50.612;6.656;2024-02-28T20:38:16;16.08;;;8.10;;
26269;SDS011;15937;50.612;6.656;2024-02-28T20:42:18;18.95;;;8.90;;
26269;SDS011;15937;50.612;6.656;2024-02-28T20:46:20;17.98;;;8.00;;
26269;SDS011;15937;50.612;6.656;2024-02-28T20:50:25;22.13;;;9.32;;
26269;SDS011;15937;50.612;6.656;2024-02-28T20:54:27;17.77;;;7.50;;
26269;SDS011;15937;50.612;6.656;2024-02-28T20:58:29;14.93;;;7.50;;
26269;SDS011;15937;50.612;6.656;2024-02-28T21:06:35;15.50;;;7.07;;
26269;SDS011;15937;50.612;6.656;2024-02-28T21:10:38;16.93;;;7.37;;
26269;SDS011;15937;50.612;6.656;2024-02-28T21:14:40;18.37;;;7.77;;
26269;SDS011;15937;50.612;6.656;2024-02-28T21:18:42;15.80;;;7.75;;
26269;SDS011;15937;50.612;6.656;2024-02-28T21:22:44;19.00;;;7.65;;
26269;SDS011;15937;50.612;6.656;2024-02-28T21:26:47;15.43;;;7.57;;
26269;SDS011;15937;50.612;6.656;2024-02-28T21:30:49;19.45;;;7.82;;
26269;SDS011;15937;50.612;6.656;2024-02-28T21:34:51;16.87;;;8.53;;
26269;SDS011;15937;50.612;6.656;2024-02-28T21:38:53;16.55;;;7.90;;
26269;SDS011;15937;50.612;6.656;2024-02-28T21:42:55;16.80;;;8.48;;
26269;SDS011;15937;50.612;6.656;2024-02-28T21:46:57;17.33;;;8.25;;
26269;SDS011;15937;50.612;6.656;2024-02-28T21:51:02;14.23;;;6.57;;
26269;SDS011;15937;50.612;6.656;2024-02-28T21:55:05;18.07;;;7.53;;
26269;SDS011;15937;50.612;6.656;2024-02-28T21:59:08;15.02;;;6.57;;
26269;SDS011;15937;50.612;6.656;2024-02-28T22:03:10;11.50;;;6.07;;
26269;SDS011;15937;50.612;6.656;2024-02-28T22:07:13;15.57;;;7.05;;
26269;SDS011;15937;50.612;6.656;2024-02-28T22:11:15;12.50;;;7.07;;
26269;SDS011;15937;50.612;6.656;2024-02-28T22:15:17;18.08;;;6.43;;
26269;SDS011;15937;50.612;6.656;2024-02-28T22:19:19;17.45;;;5.97;;
26269;SDS011;15937;50.612;6.656;2024-02-28T22:23:22;12.40;;;6.95;;
26269;SDS011;15937;50.612;6.656;2024-02-28T22:27:24;11.53;;;6.03;;
26269;SDS011;15937;50.612;6.656;2024-02-28T22:31:27;15.13;;;7.75;;
26269;SDS011;15937;50.612;6.656;2024-02-28T22:35:29;18.85;;;8.10;;
26269;SDS011;15937;50.612;6.656;2024-02-28T22:39:32;15.82;;;7.03;;
26269;SDS011;15937;50.612;6.656;2024-02-28T22:43:36;15.98;;;5.82;;
26269;SDS011;15937;50.612;6.656;2024-02-28T22:47:38;13.97;;;5.80;;
26269;SDS011;15937;50.612;6.656;2024-02-28T22:51:40;13.15;;;5.35;;
26269;SDS011;15937;50.612;6.656;2024-02-28T22:55:42;16.05;;;6.93;;
26269;SDS011;15937;50.612;6.656;2024-02-28T22:59:44;17.35;;;6.63;;
26269;SDS011;15937;50.612;6.656;2024-02-28T23:03:46;17.55;;;7.28;;
26269;SDS011;15937;50.612;6.656;2024-02-28T23:07:49;18.23;;;8.32;;
26269;SDS011;15937;50.612;6.656;2024-02-28T23:11:51;15.50;;;7.03;;
26269;SDS011;15937;50.612;6.656;2024-02-28T23:15:53;20.60;;;6.82;;
26269;SDS011;15937;50.612;6.656;2024-02-28T23:19:55;21.90;;;7.60;;
26269;SDS011;15937;50.612;6.656;2024-02-28T23:23:57;18.95;;;8.35;;
26269;SDS011;15937;50.612;6.656;2024-02-28T23:28:00;17.67;;;8.47;;
26269;SDS011;15937;50.612;6.656;2024-02-28T23:32:03;21.73;;;8.52;;
26269;SDS011;15937;50.612;6.656;2024-02-28T23:36:06;19.35;;;8.73;;
26269;SDS011;15937;50.612;6.656;2024-02-28T23:40:08;25.57;;;8.77;;
26269;SDS011;15937;50.612;6.656;2024-02-28T23:44:12;19.58;;;9.50;;
26269;SDS011;15937;50.612;6.656;2024-02-28T23:48:14;23.58;;;9.50;;
26269;SDS011;15937;50.612;6.656;2024-02-28T23:52:16;24.47;;;10.20;;
26269;SDS011;15937;50.612;6.656;2024-02-28T23:56:18;23.60;;;10.87;;
